Time;durP1;ratioP1;P1;durP2;ratioP2;P2;SDS_P1;SDS_P2;PMS_P1;PMS_P2;Temp;Humidity;BMP_temperature;BMP_pressure;BME280_temperature;BME280_humidity;BME280_pressure;Samples;Min_cycle;Max_cycle;Signal;HPM_P1;HPM_P2
2023/12/31 00:00:59;;;;;;;2.03;0.80;;;10.90;99.90;;;;;;5034672;28;20056;-74
2023/12/31 00:03:24;;;;;;;4.70;0.90;;;10.80;99.90;;;;;;5033818;28;20025;-75
2023/12/31 00:05:50;;;;;;;2.35;1.30;;;10.90;99.90;;;;;;5030517;28;20390;-75
2023/12/31 00:08:16;;;;;;;4.40;1.65;;;10.80;99.90;;;;;;5038282;28;20033;-75
2023/12/31 00:10:41;;;;;;;3.85;1.52;;;10.80;99.90;;;;;;5033851;28;20100;-75
2023/12/31 00:13:07;;;;;;;5.05;1.63;;;10.80;99.90;;;;;;5030048;28;20029;-74
2023/12/31 00:15:33;;;;;;;2.65;1.73;;;10.70;99.90;;;;;;5034973;28;20020;-75
2023/12/31 00:17:59;;;;;;;1.38;1.13;;;10.70;99.90;;;;;;5037861;28;20118;-75
2023/12/31 00:20:25;;;;;;;1.52;1.00;;;10.70;99.90;;;;;;5040872;28;20492;-75
2023/12/31 00:22:50;;;;;;;3.13;1.33;;;10.80;99.90;;;;;;5041093;28;20056;-75
2023/12/31 00:25:16;;;;;;;3.08;1.30;;;10.80;99.90;;;;;;5040367;28;20433;-75
2023/12/31 00:27:42;;;;;;;1.48;1.00;;;10.70;99.90;;;;;;5039494;28;20497;-75
2023/12/31 00:30:08;;;;;;;3.80;1.25;;;10.70;99.90;;;;;;5038314;28;20025;-75
2023/12/31 00:32:34;;;;;;;3.20;0.93;;;10.70;99.90;;;;;;5038721;28;20391;-75
2023/12/31 00:35:00;;;;;;;2.88;1.23;;;10.60;99.90;;;;;;5034888;28;20029;-75
2023/12/31 00:37:26;;;;;;;2.20;0.85;;;10.60;99.90;;;;;;5038541;28;20036;-75
2023/12/31 00:39:52;;;;;;;2.20;0.88;;;10.70;99.90;;;;;;5039121;28;20017;-75
2023/12/31 00:42:17;;;;;;;1.45;0.90;;;10.70;99.90;;;;;;5038006;28;20034;-75
2023/12/31 00:44:43;;;;;;;3.17;1.15;;;10.70;99.90;;;;;;5037371;28;20101;-75
2023/12/31 00:47:09;;;;;;;1.98;1.00;;;10.70;99.90;;;;;;5035306;28;20090;-75
2023/12/31 00:49:34;;;;;;;2.20;1.17;;;10.70;99.90;;;;;;5037681;28;20413;-75
2023/12/31 00:52:00;;;;;;;1.02;0.77;;;10.80;99.90;;;;;;5033565;28;20131;-76
2023/12/31 00:54:26;;;;;;;3.60;1.25;;;10.80;99.90;;;;;;5040983;28;20086;-75
2023/12/31 00:56:52;;;;;;;1.65;0.88;;;10.70;99.90;;;;;;5040452;28;20025;-75
2023/12/31 00:59:17;;;;;;;1.65;1.05;;;10.70;99.90;;;;;;5037648;28;20026;-75
2023/12/31 01:01:43;;;;;;;3.13;0.93;;;10.70;99.90;;;;;;5036196;28;20048;-75
2023/12/31 01:04:09;;;;;;;1.40;0.80;;;10.70;99.90;;;;;;5033391;28;20406;-75
2023/12/31 01:06:35;;;;;;;1.08;0.90;;;10.70;99.90;;;;;;5037695;28;20033;-75
2023/12/31 01:09:00;;;;;;;2.95;1.13;;;10.70;99.90;;;;;;5037204;28;20033;-75
2023/12/31 01:11:27;;;;;;;2.25;1.20;;;10.70;99.90;;;;;;5038779;28;20022;-75
2023/12/31 01:13:53;;;;;;;2.45;1.10;;;10.70;99.90;;;;;;5036731;28;20033;-75
2023/12/31 01:16:19;;;;;;;1.77;1.10;;;10.70;99.90;;;;;;5038232;28;20021;-75
2023/12/31 01:18:44;;;;;;;1.20;0.85;;;10.70;99.90;;;;;;5032991;28;20033;-75
2023/12/31 01:21:10;;;;;;;2.17;1.05;;;10.60;99.90;;;;;;5034763;28;20040;-75
2023/12/31 01:23:36;;;;;;;4.70;1.30;;;10.60;99.90;;;;;;5038865;28;20100;-75
2023/12/31 01:26:02;;;;;;;1.30;1.17;;;10.60;99.90;;;;;;5035117;28;20032;-75
2023/12/31 01:28:28;;;;;;;3.50;1.20;;;10.60;99.90;;;;;;5036423;28;20049;-75
2023/12/31 01:30:54;;;;;;;2.65;1.20;;;10.50;99.90;;;;;;5046465;28;20098;-75
2023/12/31 01:33:19;;;;;;;2.88;1.10;;;10.60;99.90;;;;;;5050284;28;20525;-75
2023/12/31 01:35:45;;;;;;;1.65;1.00;;;10.60;99.90;;;;;;5045487;28;20386;-75
2023/12/31 01:38:11;;;;;;;1.77;1.00;;;10.60;99.90;;;;;;5049967;28;20028;-75
2023/12/31 01:40:37;;;;;;;5.13;2.15;;;10.60;99.90;;;;;;5044465;28;20024;-75
2023/12/31 01:43:03;;;;;;;2.00;1.13;;;10.50;99.90;;;;;;5045711;28;20033;-75
2023/12/31 01:45:28;;;;;;;3.55;1.08;;;10.60;99.90;;;;;;5037617;28;20129;-75
2023/12/31 01:47:54;;;;;;;2.33;1.20;;;10.50;99.90;;;;;;5044275;28;20291;-75
2023/12/31 01:50:21;;;;;;;2.45;1.00;;;10.60;99.90;;;;;;5046712;28;20026;-75
2023/12/31 01:52:48;;;;;;;4.10;1.25;;;10.60;99.90;;;;;;5040908;28;20475;-75
2023/12/31 01:55:15;;;;;;;1.75;1.35;;;10.50;99.90;;;;;;5045246;28;20137;-75
2023/12/31 01:57:41;;;;;;;2.47;1.13;;;10.60;99.90;;;;;;5048145;28;20059;-75
2023/12/31 02:00:09;;;;;;;1.25;1.10;;;10.60;99.90;;;;;;5050942;28;20025;-75
2023/12/31 02:02:36;;;;;;;3.17;1.10;;;10.70;99.90;;;;;;5044968;28;20075;-75
2023/12/31 02:05:02;;;;;;;3.63;1.20;;;10.60;99.90;;;;;;5047606;28;20037;-74
2023/12/31 02:07:27;;;;;;;2.35;1.48;;;10.60;99.90;;;;;;5050775;28;20044;-75
2023/12/31 02:09:53;;;;;;;1.30;1.08;;;10.60;99.90;;;;;;5044587;28;20119;-75
2023/12/31 02:12:19;;;;;;;3.20;1.17;;;10.70;99.90;;;;;;5049484;28;20032;-75
2023/12/31 02:14:45;;;;;;;2.70;1.20;;;10.60;99.90;;;;;;5043546;28;20057;-75
2023/12/31 02:17:11;;;;;;;3.20;0.98;;;10.60;99.90;;;;;;5046831;28;20056;-75
2023/12/31 02:19:36;;;;;;;2.90;1.20;;;10.60;99.90;;;;;;5045322;28;20051;-75
2023/12/31 02:22:03;;;;;;;1.38;1.27;;;10.60;99.90;;;;;;5045089;28;20091;-75
2023/12/31 02:24:38;;;;;;;1.83;1.10;;;10.70;99.90;;;;;;5048187;28;21645;-74
2023/12/31 02:27:04;;;;;;;1.73;1.10;;;10.60;99.90;;;;;;5013557;28;20040;-75
2023/12/31 02:29:30;;;;;;;1.92;1.17;;;10.60;99.90;;;;;;5028859;28;20025;-75
2023/12/31 02:31:55;;;;;;;2.70;1.27;;;10.50;99.90;;;;;;5033930;28;20127;-75
2023/12/31 02:34:21;;;;;;;2.72;1.13;;;10.60;99.90;;;;;;5038000;28;20385;-75
2023/12/31 02:36:47;;;;;;;3.28;1.20;;;10.60;99.90;;;;;;5033750;28;20083;-75
2023/12/31 02:39:12;;;;;;;2.45;1.27;;;10.60;99.90;;;;;;5033881;28;20056;-75
2023/12/31 02:41:38;;;;;;;2.35;1.13;;;10.70;99.90;;;;;;5033228;28;20494;-75
2023/12/31 02:44:04;;;;;;;3.20;1.27;;;10.70;99.90;;;;;;5033553;28;20029;-75
2023/12/31 02:46:30;;;;;;;2.58;1.23;;;10.70;99.90;;;;;;5029421;28;20029;-75
2023/12/31 02:48:55;;;;;;;3.75;1.38;;;10.70;99.90;;;;;;5033880;28;20064;-75
2023/12/31 02:51:21;;;;;;;1.27;1.17;;;10.60;99.90;;;;;;5030259;28;20064;-75
2023/12/31 02:53:47;;;;;;;4.40;1.05;;;10.60;99.90;;;;;;5034000;28;20094;-75
2023/12/31 02:56:12;;;;;;;3.03;1.35;;;10.60;99.90;;;;;;5033095;28;20366;-75
2023/12/31 02:58:38;;;;;;;1.58;1.20;;;10.70;99.90;;;;;;5030634;28;20563;-75
2023/12/31 03:01:04;;;;;;;1.70;1.23;;;10.70;99.90;;;;;;5034448;28;20022;-74
2023/12/31 03:03:30;;;;;;;3.60;1.23;;;10.60;99.90;;;;;;5031456;28;20056;-75
2023/12/31 03:05:55;;;;;;;1.73;1.27;;;10.70;99.90;;;;;;5033489;28;20026;-75
2023/12/31 03:08:21;;;;;;;3.95;1.20;;;10.60;99.90;;;;;;5030871;28;20037;-75
2023/12/31 03:10:47;;;;;;;2.05;1.27;;;10.60;99.90;;;;;;5034523;28;20017;-75
2023/12/31 03:13:13;;;;;;;3.10;1.70;;;10.70;99.90;;;;;;5035477;28;20674;-75
2023/12/31 03:15:39;;;;;;;2.15;1.40;;;10.70;99.90;;;;;;5033040;28;20367;-75
2023/12/31 03:18:04;;;;;;;1.30;0.90;;;10.70;99.90;;;;;;5032617;28;20040;-75
2023/12/31 03:20:30;;;;;;;2.55;1.40;;;10.70;99.90;;;;;;5031663;28;20063;-75
2023/12/31 03:22:56;;;;;;;3.22;1.35;;;10.70;99.90;;;;;;5032687;28;20034;-75
2023/12/31 03:25:21;;;;;;;1.45;1.35;;;10.70;99.90;;;;;;5034748;28;20382;-75
2023/12/31 03:27:47;;;;;;;1.85;1.23;;;10.70;99.90;;;;;;5035613;28;20033;-75
2023/12/31 03:30:13;;;;;;;2.83;1.13;;;10.70;99.90;;;;;;5032941;28;20600;-75
2023/12/31 03:32:39;;;;;;;2.53;1.20;;;10.70;99.90;;;;;;5033535;28;20355;-74
2023/12/31 03:35:05;;;;;;;3.38;1.70;;;10.70;99.90;;;;;;5032467;28;20025;-76
2023/12/31 03:37:30;;;;;;;1.98;1.20;;;10.60;99.90;;;;;;5036530;28;20036;-75
2023/12/31 03:39:56;;;;;;;3.05;1.38;;;10.70;99.90;;;;;;5033256;28;20021;-75
2023/12/31 03:42:23;;;;;;;1.20;1.10;;;10.70;99.90;;;;;;5033885;28;20473;-75
2023/12/31 03:44:49;;;;;;;2.70;1.30;;;10.70;99.90;;;;;;5036192;28;20025;-75
2023/12/31 03:47:14;;;;;;;5.50;1.55;;;10.60;99.90;;;;;;5033745;28;20049;-75
2023/12/31 03:49:40;;;;;;;2.30;1.35;;;10.70;99.90;;;;;;5031112;28;20553;-75
2023/12/31 03:52:06;;;;;;;1.40;1.30;;;10.60;99.90;;;;;;5034316;28;20025;-75
2023/12/31 03:54:32;;;;;;;1.48;1.35;;;10.60;99.90;;;;;;5036411;28;20029;-75
2023/12/31 03:56:58;;;;;;;3.85;1.83;;;10.60;99.90;;;;;;5034666;28;20034;-75
2023/12/31 03:59:24;;;;;;;1.95;1.45;;;10.60;99.90;;;;;;5037635;28;20497;-75
2023/12/31 04:01:56;;;;;;;2.35;1.55;;;10.70;99.90;;;;;;5035693;28;20119;-75
2023/12/31 04:04:21;;;;;;;1.73;1.60;;;10.60;99.90;;;;;;5038190;28;20412;-75
2023/12/31 04:06:47;;;;;;;3.60;1.52;;;10.70;99.90;;;;;;5038854;28;20287;-75
2023/12/31 04:09:13;;;;;;;5.10;1.95;;;10.60;99.90;;;;;;5038206;28;20033;-75
2023/12/31 04:11:39;;;;;;;2.47;1.75;;;10.70;99.90;;;;;;5036520;28;20502;-75
2023/12/31 04:14:05;;;;;;;3.47;1.50;;;10.60;99.90;;;;;;5036655;28;20037;-75
2023/12/31 04:16:30;;;;;;;2.47;1.73;;;10.70;99.90;;;;;;5036377;28;20501;-76
2023/12/31 04:18:56;;;;;;;2.35;1.52;;;10.60;99.90;;;;;;5039967;28;20424;-75
2023/12/31 04:21:22;;;;;;;1.52;1.42;;;10.60;99.90;;;;;;5034917;28;20472;-75
2023/12/31 04:23:47;;;;;;;1.98;1.73;;;10.60;99.90;;;;;;5033692;28;20072;-75
2023/12/31 04:26:13;;;;;;;2.53;1.58;;;10.60;99.90;;;;;;5033932;28;20454;-75
2023/12/31 04:28:39;;;;;;;1.70;1.60;;;10.50;99.90;;;;;;5036812;28;20041;-75
2023/12/31 04:31:05;;;;;;;1.48;1.38;;;10.60;99.90;;;;;;5033832;28;20029;-75
2023/12/31 04:33:30;;;;;;;2.13;1.92;;;10.60;99.90;;;;;;5037523;28;20045;-75
2023/12/31 04:35:56;;;;;;;2.28;1.67;;;10.50;99.90;;;;;;5035426;28;20060;-75
2023/12/31 04:38:21;;;;;;;1.83;1.63;;;10.50;99.90;;;;;;5039313;28;20029;-76
2023/12/31 04:40:47;;;;;;;2.53;1.77;;;10.60;99.90;;;;;;5039304;28;20363;-75
2023/12/31 04:43:13;;;;;;;3.30;1.60;;;10.50;99.90;;;;;;5047727;28;20437;-75
2023/12/31 04:45:39;;;;;;;1.73;1.63;;;10.60;99.90;;;;;;5051585;28;20027;-75
2023/12/31 04:48:05;;;;;;;2.15;1.52;;;10.60;99.90;;;;;;5048054;28;20060;-75
2023/12/31 04:50:30;;;;;;;2.00;1.80;;;10.60;99.90;;;;;;5047000;28;20033;-75
2023/12/31 04:52:56;;;;;;;2.38;2.03;;;10.60;99.90;;;;;;5047024;28;20030;-75
2023/12/31 04:55:22;;;;;;;2.10;1.60;;;10.60;99.90;;;;;;5051740;28;20411;-75
2023/12/31 04:57:49;;;;;;;3.05;2.03;;;10.60;99.90;;;;;;5049254;28;20048;-76
2023/12/31 05:00:15;;;;;;;1.70;1.60;;;10.60;99.90;;;;;;5049193;28;20024;-75
2023/12/31 05:02:41;;;;;;;2.80;2.08;;;10.60;99.90;;;;;;5044910;28;20025;-75
2023/12/31 05:05:07;;;;;;;2.22;1.90;;;10.70;99.90;;;;;;5050512;28;20485;-75
2023/12/31 05:07:33;;;;;;;2.35;1.52;;;10.70;99.90;;;;;;5050571;28;20056;-75
2023/12/31 05:09:58;;;;;;;3.20;2.08;;;10.60;99.90;;;;;;5052736;28;20025;-75
2023/12/31 05:12:24;;;;;;;3.55;2.22;;;10.70;99.90;;;;;;5047746;28;20025;-75
2023/12/31 05:14:50;;;;;;;2.60;1.95;;;10.70;99.90;;;;;;5042950;28;20071;-75
2023/12/31 05:17:15;;;;;;;2.53;2.33;;;10.80;99.90;;;;;;5049647;28;20555;-75
2023/12/31 05:19:41;;;;;;;2.78;1.80;;;10.70;99.90;;;;;;5053250;28;20037;-75
2023/12/31 05:22:07;;;;;;;2.13;1.92;;;10.70;99.90;;;;;;5039671;28;20029;-75
2023/12/31 05:24:32;;;;;;;2.83;1.90;;;10.80;99.90;;;;;;5040352;28;20029;-75
2023/12/31 05:26:58;;;;;;;2.17;1.60;;;10.80;99.90;;;;;;5045622;28;20526;-75
2023/12/31 05:29:24;;;;;;;2.00;1.80;;;10.90;99.90;;;;;;5041886;28;20382;-75
2023/12/31 05:31:49;;;;;;;2.78;1.73;;;10.80;99.90;;;;;;5048539;28;20470;-75
2023/12/31 05:34:15;;;;;;;4.00;2.03;;;10.80;99.90;;;;;;5047056;28;20101;-75
2023/12/31 05:36:41;;;;;;;3.03;1.83;;;10.90;99.90;;;;;;5042977;28;20433;-76
2023/12/31 05:39:08;;;;;;;2.25;2.05;;;10.80;99.90;;;;;;5040249;28;20060;-75
2023/12/31 05:41:35;;;;;;;2.20;2.00;;;10.90;99.90;;;;;;5042358;28;20066;-75
2023/12/31 05:44:00;;;;;;;2.15;1.80;;;10.90;99.90;;;;;;5047752;28;20024;-76
2023/12/31 05:46:26;;;;;;;5.22;1.92;;;10.90;99.90;;;;;;5049243;28;20029;-74
2023/12/31 05:48:52;;;;;;;2.03;1.92;;;11.00;99.90;;;;;;5049913;28;20413;-75
2023/12/31 05:51:18;;;;;;;2.42;2.22;;;11.10;99.90;;;;;;5041454;28;20393;-75
2023/12/31 05:53:44;;;;;;;2.08;1.88;;;11.00;99.90;;;;;;5041569;28;20028;-75
2023/12/31 05:56:09;;;;;;;2.20;2.00;;;11.10;99.90;;;;;;5045856;28;20024;-75
2023/12/31 05:58:35;;;;;;;2.20;1.70;;;11.10;99.90;;;;;;5048073;28;20457;-75
2023/12/31 06:01:02;;;;;;;2.10;1.90;;;11.10;99.90;;;;;;5049986;28;20033;-75
2023/12/31 06:03:28;;;;;;;2.13;1.90;;;11.10;99.90;;;;;;5043996;28;20022;-75
2023/12/31 06:05:54;;;;;;;5.38;1.90;;;11.20;99.90;;;;;;5047119;28;20025;-75
2023/12/31 06:08:19;;;;;;;2.22;2.03;;;11.20;99.90;;;;;;5047583;28;20051;-75
2023/12/31 06:10:45;;;;;;;2.85;1.83;;;11.20;99.90;;;;;;5045331;28;20033;-75
2023/12/31 06:13:11;;;;;;;4.82;2.00;;;11.10;99.90;;;;;;5048937;28;20417;-75
2023/12/31 06:15:37;;;;;;;2.90;2.30;;;11.20;99.90;;;;;;5045305;28;20033;-75
2023/12/31 06:18:02;;;;;;;2.88;2.20;;;11.20;99.90;;;;;;5045157;28;20102;-75
2023/12/31 06:20:28;;;;;;;2.83;2.10;;;11.10;99.90;;;;;;5044236;28;20036;-75
2023/12/31 06:22:54;;;;;;;2.05;1.80;;;11.20;99.90;;;;;;5047752;28;20029;-75
2023/12/31 06:25:20;;;;;;;3.78;1.98;;;11.20;99.90;;;;;;5046733;28;20489;-75
2023/12/31 06:27:45;;;;;;;2.25;1.90;;;11.20;99.90;;;;;;5041952;28;20548;-75
2023/12/31 06:30:11;;;;;;;2.67;2.15;;;11.20;99.90;;;;;;5041599;28;20056;-75
2023/12/31 06:32:37;;;;;;;2.95;2.40;;;11.30;99.90;;;;;;5047149;28;20401;-75
2023/12/31 06:35:03;;;;;;;2.50;2.00;;;11.30;99.90;;;;;;5040775;28;20087;-74
2023/12/31 06:37:29;;;;;;;2.63;1.92;;;11.30;99.90;;;;;;5042899;28;20041;-75
2023/12/31 06:39:54;;;;;;;3.53;2.00;;;11.40;99.90;;;;;;5043266;28;20480;-74
2023/12/31 06:42:20;;;;;;;2.35;1.77;;;11.30;99.90;;;;;;5045883;28;20547;-76
2023/12/31 06:44:46;;;;;;;3.97;2.20;;;11.30;99.90;;;;;;5051813;28;20075;-75
2023/12/31 06:47:12;;;;;;;2.28;1.88;;;11.30;99.90;;;;;;5043093;28;20037;-75
2023/12/31 06:49:38;;;;;;;3.78;2.42;;;11.40;99.90;;;;;;5045701;28;20036;-75
2023/12/31 06:52:04;;;;;;;2.33;2.08;;;11.40;99.90;;;;;;5041935;28;20036;-76
2023/12/31 06:54:29;;;;;;;3.20;2.17;;;11.40;99.90;;;;;;5042539;28;20020;-75
2023/12/31 06:56:55;;;;;;;4.45;2.30;;;11.40;99.90;;;;;;5043711;28;20017;-75
2023/12/31 06:59:22;;;;;;;3.10;2.00;;;11.50;99.90;;;;;;5042614;28;20074;-75
2023/12/31 07:01:48;;;;;;;5.60;2.17;;;11.50;99.90;;;;;;5040740;28;20038;-74
2023/12/31 07:04:13;;;;;;;4.10;2.00;;;11.50;99.90;;;;;;5046917;28;20063;-75
2023/12/31 07:06:39;;;;;;;2.50;2.28;;;11.50;99.90;;;;;;5039364;28;20033;-75
2023/12/31 07:09:05;;;;;;;2.90;2.25;;;11.50;99.90;;;;;;5047804;28;20028;-75
2023/12/31 07:11:31;;;;;;;2.58;2.38;;;11.50;99.90;;;;;;5043154;28;20029;-75
2023/12/31 07:13:56;;;;;;;2.47;2.25;;;11.60;99.90;;;;;;5039747;28;20055;-75
2023/12/31 07:16:22;;;;;;;2.63;2.00;;;11.60;99.90;;;;;;5040360;28;20030;-75
2023/12/31 07:18:48;;;;;;;2.35;2.15;;;11.60;99.90;;;;;;5044788;28;20100;-74
2023/12/31 07:21:21;;;;;;;4.07;2.05;;;11.60;99.90;;;;;;5042252;28;20098;-75
2023/12/31 07:23:47;;;;;;;1.90;1.70;;;11.60;99.90;;;;;;5037371;28;20180;-75
2023/12/31 07:26:23;;;;;;;2.65;2.25;;;11.60;99.90;;;;;;5039926;28;20137;-75
2023/12/31 07:28:49;;;;;;;2.72;1.98;;;11.60;99.90;;;;;;5041056;28;20069;-75
2023/12/31 07:31:14;;;;;;;3.22;2.22;;;11.60;99.90;;;;;;5046269;28;20049;-76
2023/12/31 07:33:40;;;;;;;2.38;2.05;;;11.60;99.90;;;;;;5045452;28;20108;-75
2023/12/31 07:36:06;;;;;;;2.60;2.38;;;11.60;99.90;;;;;;5042928;28;20416;-74
2023/12/31 07:38:32;;;;;;;3.35;2.75;;;11.70;99.90;;;;;;5048568;28;20506;-74
2023/12/31 07:40:57;;;;;;;2.80;2.60;;;11.60;99.90;;;;;;5042381;28;20121;-74
2023/12/31 07:43:23;;;;;;;2.95;2.30;;;11.70;99.90;;;;;;5046132;28;20381;-75
2023/12/31 07:45:49;;;;;;;3.03;2.40;;;11.70;99.90;;;;;;5044985;28;20383;-75
2023/12/31 07:48:14;;;;;;;4.50;3.00;;;11.70;99.90;;;;;;5049037;28;20413;-75
2023/12/31 07:50:40;;;;;;;3.03;2.72;;;11.70;99.90;;;;;;5050271;28;20150;-75
2023/12/31 07:53:06;;;;;;;4.15;3.15;;;11.80;99.90;;;;;;5044285;28;20026;-75
2023/12/31 07:55:31;;;;;;;2.70;2.50;;;11.70;99.90;;;;;;5043904;28;20039;-75
2023/12/31 07:57:57;;;;;;;3.38;2.67;;;11.70;99.90;;;;;;5040402;28;20493;-75
2023/12/31 08:00:23;;;;;;;5.72;3.08;;;11.80;99.90;;;;;;5044444;28;20513;-74
2023/12/31 08:02:48;;;;;;;3.13;2.50;;;11.80;99.90;;;;;;5045067;28;20044;-76
2023/12/31 08:05:15;;;;;;;3.55;2.65;;;11.70;99.90;;;;;;5042465;28;20113;-76
2023/12/31 08:07:40;;;;;;;3.60;3.10;;;11.50;99.90;;;;;;5048115;28;20957;-76
2023/12/31 08:10:07;;;;;;;3.17;2.70;;;11.50;99.90;;;;;;5042501;28;20029;-75
2023/12/31 08:12:33;;;;;;;5.63;3.55;;;11.60;99.90;;;;;;5043022;28;20367;-76
2023/12/31 08:14:59;;;;;;;4.40;3.15;;;11.50;99.90;;;;;;5042789;28;20504;-75
2023/12/31 08:17:26;;;;;;;5.07;3.67;;;11.40;99.90;;;;;;5044014;28;20065;-75
2023/12/31 08:19:52;;;;;;;4.05;3.25;;;11.40;99.90;;;;;;5051432;28;20040;-75
2023/12/31 08:22:17;;;;;;;8.70;3.78;;;11.40;99.90;;;;;;5043661;28;20021;-75
2023/12/31 08:24:43;;;;;;;3.97;3.58;;;11.40;99.90;;;;;;5050032;28;20021;-75
2023/12/31 08:27:09;;;;;;;3.75;3.30;;;11.40;99.90;;;;;;5045592;28;20461;-75
2023/12/31 08:29:42;;;;;;;4.32;3.78;;;11.40;99.90;;;;;;5045997;28;20051;-75
2023/12/31 08:32:18;;;;;;;3.85;3.05;;;11.30;99.90;;;;;;5049044;28;20381;-76
2023/12/31 08:34:45;;;;;;;5.15;3.47;;;11.30;99.90;;;;;;5043111;28;20022;-77
2023/12/31 08:37:11;;;;;;;3.80;3.42;;;11.30;99.90;;;;;;5040211;28;20045;-76
2023/12/31 08:39:41;;;;;;;5.28;3.35;;;11.20;99.90;;;;;;5044050;28;20046;-76
2023/12/31 08:42:06;;;;;;;3.50;3.17;;;11.20;99.90;;;;;;5048185;28;20370;-75
2023/12/31 08:44:32;;;;;;;3.63;3.30;;;11.30;99.90;;;;;;5043057;28;20013;-75
2023/12/31 08:46:58;;;;;;;4.15;3.05;;;11.20;99.90;;;;;;5045284;28;20099;-76
2023/12/31 08:49:26;;;;;;;5.03;3.42;;;11.20;99.90;;;;;;5043845;28;20029;-76
2023/12/31 08:51:52;;;;;;;3.83;3.00;;;11.20;99.90;;;;;;5048424;28;20039;-76
2023/12/31 08:54:17;;;;;;;2.60;2.17;;;11.10;99.90;;;;;;5044881;28;20426;-77
2023/12/31 08:56:44;;;;;;;5.03;2.90;;;11.10;99.90;;;;;;5039017;28;20021;-76
2023/12/31 08:59:09;;;;;;;3.28;2.90;;;11.00;99.90;;;;;;5042867;28;20017;-77
2023/12/31 09:01:35;;;;;;;5.93;3.17;;;11.00;99.90;;;;;;5039840;28;20052;-76
2023/12/31 09:04:01;;;;;;;4.20;3.50;;;11.00;99.90;;;;;;5037992;28;20021;-76
2023/12/31 09:06:27;;;;;;;3.88;3.42;;;11.10;99.90;;;;;;5049707;28;20028;-76
2023/12/31 09:08:53;;;;;;;5.18;3.60;;;11.20;99.90;;;;;;5044986;28;20040;-75
2023/12/31 09:11:20;;;;;;;4.72;3.67;;;11.20;99.90;;;;;;5043241;28;20025;-75
2023/12/31 09:13:45;;;;;;;3.83;3.42;;;11.10;99.90;;;;;;5047943;28;20474;-74
2023/12/31 09:16:11;;;;;;;3.90;3.60;;;11.10;99.90;;;;;;5039205;28;20029;-74
2023/12/31 09:18:37;;;;;;;3.80;3.30;;;11.00;99.90;;;;;;5045595;28;20044;-74
2023/12/31 09:21:03;;;;;;;5.90;2.97;;;11.00;99.90;;;;;;5048066;28;20033;-74
2023/12/31 09:23:28;;;;;;;2.65;2.25;;;11.10;99.90;;;;;;5043420;28;20411;-76
2023/12/31 09:25:55;;;;;;;3.40;2.50;;;11.20;99.90;;;;;;5041749;28;20032;-75
2023/12/31 09:28:21;;;;;;;2.65;2.45;;;11.20;99.90;;;;;;5044031;28;20033;-74
2023/12/31 09:30:46;;;;;;;4.72;2.65;;;11.20;99.90;;;;;;5042903;28;20021;-75
2023/12/31 09:33:13;;;;;;;3.58;2.60;;;11.20;99.90;;;;;;5038418;28;20397;-75
2023/12/31 09:35:38;;;;;;;3.53;2.15;;;11.20;99.90;;;;;;5043321;28;20103;-76
2023/12/31 09:38:04;;;;;;;2.42;1.73;;;11.20;99.90;;;;;;5047250;28;20072;-74
2023/12/31 09:40:30;;;;;;;2.80;2.28;;;11.20;99.90;;;;;;5042653;28;20393;-74
2023/12/31 09:42:56;;;;;;;4.95;1.90;;;11.20;99.90;;;;;;5045967;28;20029;-75
2023/12/31 09:45:27;;;;;;;1.67;1.55;;;11.20;99.90;;;;;;5036608;28;20495;-76
2023/12/31 09:47:54;;;;;;;1.98;1.13;;;11.20;99.90;;;;;;4983279;28;20118;-74
2023/12/31 09:50:22;;;;;;;2.13;1.23;;;11.10;99.90;;;;;;5043914;28;20064;-75
2023/12/31 09:52:48;;;;;;;2.95;1.38;;;11.10;99.90;;;;;;5044239;28;20029;-75
2023/12/31 09:55:16;;;;;;;3.03;1.10;;;11.10;99.90;;;;;;5044547;28;20078;-74
2023/12/31 09:57:47;;;;;;;2.97;1.10;;;11.00;99.90;;;;;;5043884;28;20033;-74
2023/12/31 10:00:13;;;;;;;2.17;1.27;;;11.10;99.90;;;;;;5039884;28;20024;-75
2023/12/31 10:02:39;;;;;;;2.08;1.00;;;11.20;99.90;;;;;;5046909;28;20032;-75
2023/12/31 10:05:06;;;;;;;2.83;1.38;;;11.20;99.90;;;;;;5040457;28;20025;-75
2023/12/31 10:07:32;;;;;;;1.25;0.85;;;11.20;99.90;;;;;;5040030;28;20087;-75
2023/12/31 10:09:59;;;;;;;2.17;0.93;;;11.20;99.90;;;;;;5043139;28;20048;-75
2023/12/31 10:12:27;;;;;;;2.35;1.10;;;11.10;99.90;;;;;;5041703;28;20033;-76
2023/12/31 10:14:53;;;;;;;7.43;1.17;;;11.10;99.90;;;;;;5043048;28;20159;-77
2023/12/31 10:17:20;;;;;;;2.03;1.00;;;11.00;99.90;;;;;;5042428;28;20037;-77
2023/12/31 10:19:46;;;;;;;3.67;2.03;;;11.10;99.90;;;;;;5043807;28;20029;-77
2023/12/31 10:22:13;;;;;;;4.47;1.20;;;11.00;99.90;;;;;;5041457;28;20473;-77
2023/12/31 10:24:40;;;;;;;5.05;1.10;;;11.00;99.90;;;;;;5041651;28;20100;-77
2023/12/31 10:27:08;;;;;;;3.85;1.33;;;11.00;99.90;;;;;;5039477;28;20041;-77
2023/12/31 10:29:35;;;;;;;3.50;1.30;;;11.00;99.90;;;;;;5041951;28;20102;-77
2023/12/31 10:32:05;;;;;;;2.20;1.00;;;11.00;99.90;;;;;;5037374;28;20110;-77
2023/12/31 10:34:32;;;;;;;3.17;1.23;;;10.90;99.90;;;;;;5036792;28;20409;-76
2023/12/31 10:37:05;;;;;;;4.82;1.38;;;10.90;99.90;;;;;;5035895;28;20029;-77
2023/12/31 10:39:33;;;;;;;4.35;1.10;;;10.90;99.90;;;;;;5044919;28;20052;-77
2023/12/31 10:42:08;;;;;;;4.07;1.52;;;10.90;99.90;;;;;;5045358;28;20037;-76
2023/12/31 10:44:38;;;;;;;4.28;1.20;;;10.90;99.90;;;;;;5045955;28;20032;-76
2023/12/31 10:47:06;;;;;;;4.03;1.10;;;10.80;99.90;;;;;;5043110;28;20033;-77
2023/12/31 10:49:32;;;;;;;4.80;1.50;;;10.80;99.90;;;;;;5043037;28;20029;-76
2023/12/31 10:52:03;;;;;;;2.33;0.80;;;10.80;99.90;;;;;;5044170;28;20493;-76
2023/12/31 10:54:37;;;;;;;2.10;0.95;;;10.80;99.90;;;;;;5044971;28;20021;-76
2023/12/31 10:57:05;;;;;;;2.63;1.25;;;10.80;99.90;;;;;;5045165;28;20021;-75
2023/12/31 10:59:43;;;;;;;3.88;0.90;;;10.80;99.90;;;;;;5037341;28;20021;-76
2023/12/31 11:02:17;;;;;;;4.25;0.98;;;10.70;99.90;;;;;;5046932;28;20025;-75
2023/12/31 11:04:49;;;;;;;4.70;1.30;;;10.70;99.90;;;;;;5037710;28;20116;-75
2023/12/31 11:07:17;;;;;;;3.08;0.98;;;10.70;99.90;;;;;;5043795;28;20086;-75
2023/12/31 11:09:46;;;;;;;5.97;0.82;;;10.70;99.90;;;;;;5041621;28;20024;-76
2023/12/31 11:12:13;;;;;;;2.95;0.80;;;10.70;99.90;;;;;;5041109;28;20021;-75
2023/12/31 11:14:53;;;;;;;3.08;0.60;;;10.70;99.90;;;;;;5047893;28;20462;-75
2023/12/31 11:18:13;;;;;;;1.63;0.70;;;10.70;99.90;;;;;;5045179;28;20056;-75
2023/12/31 11:24:11;;;;;;;4.55;0.82;;;10.70;99.90;;;;;;5030823;28;20036;-75
2023/12/31 11:26:38;;;;;;;2.05;0.60;;;10.70;99.90;;;;;;5014413;28;20111;-75
2023/12/31 11:29:09;;;;;;;2.25;0.75;;;10.70;99.90;;;;;;5033520;28;20040;-75
2023/12/31 11:31:40;;;;;;;1.15;0.70;;;10.70;99.90;;;;;;5032546;28;20028;-75
2023/12/31 11:34:05;;;;;;;1.00;0.50;;;10.80;99.90;;;;;;5033593;28;20025;-75
2023/12/31 11:36:31;;;;;;;3.08;0.50;;;10.70;99.90;;;;;;5034543;28;20036;-74
2023/12/31 11:39:01;;;;;;;2.45;0.50;;;10.80;99.90;;;;;;5034634;28;20041;-75
2023/12/31 11:41:33;;;;;;;2.33;0.50;;;10.90;99.90;;;;;;5032791;28;20104;-75
2023/12/31 11:43:59;;;;;;;2.67;0.85;;;10.80;99.90;;;;;;5049401;28;20037;-75
2023/12/31 11:46:35;;;;;;;2.60;0.90;;;10.80;99.90;;;;;;5042523;28;20099;-74
2023/12/31 11:49:01;;;;;;;1.83;0.60;;;10.90;99.90;;;;;;5045051;28;20112;-74
2023/12/31 11:51:56;;;;;;;0.98;0.70;;;10.90;99.90;;;;;;5045649;28;20101;-75
2023/12/31 11:54:37;;;;;;;4.68;0.98;;;10.90;99.90;;;;;;5039738;28;20029;-75
2023/12/31 11:57:03;;;;;;;4.65;1.35;;;10.90;99.90;;;;;;5039523;28;20461;-75
2023/12/31 11:59:36;;;;;;;5.82;1.20;;;10.90;99.90;;;;;;5043049;28;20020;-75
2023/12/31 12:02:03;;;;;;;;;;;10.70;99.90;;;;;;5036879;28;20032;-76
2023/12/31 12:04:29;;;;;;;4.90;0.80;;;10.70;99.90;;;;;;5040983;28;20471;-77
2023/12/31 12:06:55;;;;;;;4.95;1.20;;;10.70;99.90;;;;;;5041969;28;20280;-75
2023/12/31 12:09:31;;;;;;;9.55;1.80;;;10.60;99.90;;;;;;5045432;28;20082;-76
2023/12/31 12:12:04;;;;;;;3.38;0.98;;;10.50;99.90;;;;;;5047144;28;20054;-76
2023/12/31 12:14:30;;;;;;;;;;;10.50;99.90;;;;;;5041553;28;20028;-77
2023/12/31 12:16:56;;;;;;;6.80;1.13;;;10.60;99.90;;;;;;5041912;28;19916;-76
2023/12/31 12:19:23;;;;;;;7.38;1.63;;;10.60;99.90;;;;;;5046246;28;20146;-76
2023/12/31 12:21:50;;;;;;;5.88;1.48;;;10.50;99.90;;;;;;5051797;28;20521;-78
2023/12/31 12:24:17;;;;;;;5.75;1.35;;;10.40;99.90;;;;;;5048141;28;20063;-75
2023/12/31 12:26:44;;;;;;;4.75;1.27;;;10.50;99.90;;;;;;5042768;28;20033;-76
2023/12/31 12:29:10;;;;;;;6.60;1.60;;;10.60;99.90;;;;;;5038614;28;20993;-76
2023/12/31 12:31:36;;;;;;;5.25;1.00;;;10.60;99.90;;;;;;5043380;28;20018;-76
2023/12/31 12:34:07;;;;;;;6.32;1.42;;;10.60;99.90;;;;;;5049047;28;20040;-77
2023/12/31 12:36:33;;;;;;;6.43;1.52;;;10.60;99.90;;;;;;5041567;28;20041;-77
2023/12/31 12:39:05;;;;;;;4.18;1.48;;;10.60;99.90;;;;;;5044603;28;20494;-75
2023/12/31 12:41:32;;;;;;;7.63;1.20;;;10.70;99.90;;;;;;5046229;28;20028;-77
2023/12/31 12:43:59;;;;;;;2.58;1.27;;;10.60;99.90;;;;;;5041469;28;20498;-76
2023/12/31 12:46:29;;;;;;;6.07;1.52;;;10.70;99.90;;;;;;5044098;28;20615;-77
2023/12/31 12:48:56;;;;;;;4.72;1.10;;;10.70;99.90;;;;;;5046561;28;20098;-77